Time;durP1;ratioP1;P1;durP2;ratioP2;P2;SDS_P1;SDS_P2;PMS_P1;PMS_P2;Temp;Humidity;BMP_temperature;BMP_pressure;BME280_temperature;BME280_humidity;BME280_pressure;Samples;Min_cycle;Max_cycle;Signal;HPM_P1;HPM_P2
2022/08/24 00:04:34;;;;;;;3.33;2.30;;;22.60;57.50;;;;;;10474445;28;20223;-78
2022/08/24 00:09:34;;;;;;;7.40;2.77;;;22.50;59.30;;;;;;10471332;28;20227;-77
2022/08/24 00:14:35;;;;;;;2.70;2.27;;;22.30;61.20;;;;;;10475898;28;20231;-76
2022/08/24 00:19:39;;;;;;;3.07;2.77;;;22.10;61.40;;;;;;10473804;28;20240;-77
2022/08/24 00:24:40;;;;;;;4.20;2.60;;;21.80;60.90;;;;;;10470144;28;20605;-77
2022/08/24 00:29:40;;;;;;;3.77;3.00;;;21.80;62.50;;;;;;10478135;28;20219;-75
2022/08/24 00:34:41;;;;;;;4.67;2.57;;;21.80;63.00;;;;;;10474594;28;20325;-74
2022/08/24 00:39:42;;;;;;;4.00;2.70;;;21.80;62.80;;;;;;10473196;28;20318;-74
2022/08/24 00:44:42;;;;;;;3.60;2.60;;;21.80;61.50;;;;;;10466546;28;20243;-76
2022/08/24 00:49:57;;;;;;;3.77;2.70;;;21.70;61.20;;;;;;10471915;28;20706;-75
2022/08/24 00:55:12;;;;;;;4.23;2.33;;;21.70;60.60;;;;;;10473921;28;20648;-72
2022/08/24 01:00:23;;;;;;;4.77;2.43;;;21.80;60.30;;;;;;10472684;28;20223;-74
2022/08/24 01:05:24;;;;;;;5.17;2.40;;;21.80;60.00;;;;;;10467419;28;20231;-74
2022/08/24 01:10:27;;;;;;;4.37;2.60;;;21.90;59.80;;;;;;10479599;28;20228;-74
2022/08/24 01:15:30;;;;;;;8.40;2.50;;;22.00;59.70;;;;;;10471168;28;20873;-74
2022/08/24 01:20:30;;;;;;;3.87;2.63;;;21.90;60.20;;;;;;10480736;28;20211;-77
2022/08/24 01:25:33;;;;;;;3.60;2.20;;;21.90;60.30;;;;;;10474073;28;20215;-75
2022/08/24 01:30:34;;;;;;;3.97;2.17;;;21.70;60.60;;;;;;10487247;28;20227;-75
2022/08/24 01:35:37;;;;;;;3.27;2.47;;;21.60;60.40;;;;;;10476242;28;20828;-74
2022/08/24 01:40:44;;;;;;;4.73;2.40;;;21.60;60.70;;;;;;10462986;28;20262;-73
2022/08/24 01:45:45;;;;;;;4.07;2.30;;;21.60;60.40;;;;;;10483535;28;20223;-74
2022/08/24 01:50:46;;;;;;;6.43;3.00;;;21.60;60.20;;;;;;10470913;28;20216;-75
2022/08/24 01:55:47;;;;;;;5.33;2.27;;;21.60;59.90;;;;;;10478146;28;20211;-74
2022/08/24 02:00:48;;;;;;;4.10;2.37;;;21.60;59.80;;;;;;10471497;28;20720;-74
2022/08/24 02:05:50;;;;;;;5.73;2.33;;;21.60;60.00;;;;;;10475368;28;20298;-74
2022/08/24 02:10:51;;;;;;;1.90;1.70;;;21.60;60.00;;;;;;10468043;28;20740;-74
2022/08/24 02:15:52;;;;;;;3.07;1.80;;;21.50;60.20;;;;;;10474335;28;20230;-75
2022/08/24 02:20:53;;;;;;;6.03;2.13;;;21.50;60.40;;;;;;10462931;28;20211;-74
2022/08/24 02:25:55;;;;;;;3.83;1.90;;;21.40;60.70;;;;;;10485324;28;20219;-74
2022/08/24 02:30:55;;;;;;;7.33;2.00;;;21.30;60.70;;;;;;10486073;28;20238;-74
2022/08/24 02:36:02;;;;;;;3.20;2.20;;;21.30;61.00;;;;;;10478399;28;20234;-74
2022/08/24 02:41:03;;;;;;;4.87;2.00;;;21.20;61.30;;;;;;10478295;28;20247;-74
2022/08/24 02:46:04;;;;;;;2.40;1.87;;;21.20;61.40;;;;;;10479537;28;20247;-74
2022/08/24 02:51:07;;;;;;;4.80;2.30;;;21.20;61.60;;;;;;10475507;28;20297;-74
2022/08/24 02:56:08;;;;;;;2.40;1.77;;;21.10;61.80;;;;;;10470743;28;20298;-74
2022/08/24 03:01:10;;;;;;;2.27;1.77;;;21.10;62.00;;;;;;10478464;28;20365;-74
2022/08/24 03:06:11;;;;;;;2.50;1.70;;;21.00;62.10;;;;;;10481350;28;20270;-73
2022/08/24 03:11:12;;;;;;;4.83;2.07;;;21.00;62.30;;;;;;10474147;28;20258;-74
2022/08/24 03:16:12;;;;;;;5.80;1.97;;;21.00;62.40;;;;;;10476761;28;20215;-75
2022/08/24 03:21:13;;;;;;;5.03;2.10;;;21.00;62.60;;;;;;10482581;28;20628;-76
2022/08/24 03:26:14;;;;;;;3.20;2.10;;;21.00;62.60;;;;;;10478535;28;20211;-75
2022/08/24 03:31:15;;;;;;;3.73;2.07;;;20.90;62.70;;;;;;10480026;28;20322;-75
2022/08/24 03:36:16;;;;;;;4.10;1.77;;;20.90;62.80;;;;;;10475249;28;20246;-75
2022/08/24 03:41:16;;;;;;;3.13;1.83;;;20.90;62.70;;;;;;10477003;28;20224;-75
2022/08/24 03:46:21;;;;;;;3.53;1.80;;;20.90;63.00;;;;;;10481591;28;20219;-75
2022/08/24 03:51:24;;;;;;;5.17;2.00;;;20.90;63.30;;;;;;10466142;28;20230;-77
2022/08/24 03:56:25;;;;;;;4.43;1.87;;;20.80;63.60;;;;;;10467667;28;20219;-75
2022/08/24 04:01:26;;;;;;;5.87;2.30;;;20.70;64.20;;;;;;10476465;28;20207;-75
2022/08/24 04:06:27;;;;;;;3.37;2.07;;;20.70;64.80;;;;;;10478253;28;20851;-75
2022/08/24 04:11:28;;;;;;;3.40;1.73;;;20.60;64.90;;;;;;10470054;28;20310;-74
2022/08/24 04:16:29;;;;;;;2.10;1.80;;;20.60;65.60;;;;;;10466633;28;20254;-73
2022/08/24 04:21:34;;;;;;;3.17;1.83;;;20.60;66.00;;;;;;10477818;28;20243;-75
2022/08/24 04:26:36;;;;;;;4.07;1.83;;;20.60;66.40;;;;;;10471715;28;20227;-76
2022/08/24 04:31:38;;;;;;;2.17;1.80;;;20.50;66.70;;;;;;10477816;28;20241;-69
2022/08/24 04:36:41;;;;;;;2.67;1.93;;;20.50;66.80;;;;;;10472446;28;20389;-68
2022/08/24 04:41:42;;;;;;;1.93;1.73;;;20.60;66.70;;;;;;10463106;28;20360;-67
2022/08/24 04:46:43;;;;;;;4.33;2.00;;;20.60;66.40;;;;;;10469356;28;20227;-69
2022/08/24 04:51:43;;;;;;;4.40;2.07;;;20.70;66.50;;;;;;10475432;28;20253;-69
2022/08/24 04:56:44;;;;;;;2.80;2.00;;;20.70;66.50;;;;;;10457516;28;20230;-67
2022/08/24 05:01:45;;;;;;;3.43;1.77;;;20.80;65.90;;;;;;10476220;28;20721;-68
2022/08/24 05:06:45;;;;;;;3.63;1.70;;;20.90;65.60;;;;;;10466678;28;20224;-67
2022/08/24 05:11:46;;;;;;;4.60;2.00;;;21.00;65.10;;;;;;10467309;28;20318;-67
2022/08/24 05:16:47;;;;;;;4.27;2.20;;;21.20;64.40;;;;;;10461931;28;20219;-70
2022/08/24 05:21:48;;;;;;;5.87;2.00;;;21.30;64.00;;;;;;10465961;28;20223;-70
2022/08/24 05:26:50;;;;;;;3.57;2.07;;;21.60;63.00;;;;;;10474009;28;20250;-72
2022/08/24 05:31:50;;;;;;;4.30;2.33;;;21.70;62.50;;;;;;10471881;28;20237;-70
2022/08/24 05:36:51;;;;;;;38.73;5.53;;;21.90;62.00;;;;;;10473366;28;20658;-71
2022/08/24 05:41:52;;;;;;;98.63;9.83;;;22.10;60.90;;;;;;10474032;28;20222;-71
2022/08/24 05:46:54;;;;;;;10.00;2.33;;;22.90;58.80;;;;;;10472634;28;20220;-70
2022/08/24 05:51:55;;;;;;;18.90;3.60;;;23.20;58.00;;;;;;10472208;28;20223;-72
2022/08/24 05:57:00;;;;;;;10.67;2.93;;;23.20;57.70;;;;;;10471864;28;20220;-71
2022/08/24 06:02:01;;;;;;;4.37;2.30;;;23.50;57.60;;;;;;10481425;28;20218;-71
2022/08/24 06:07:02;;;;;;;7.00;2.67;;;24.90;55.00;;;;;;10486685;28;20228;-71
2022/08/24 06:12:03;;;;;;;8.20;2.77;;;26.20;52.30;;;;;;10470500;28;20230;-71
2022/08/24 06:17:06;;;;;;;11.37;3.10;;;27.00;50.30;;;;;;10483536;28;20221;-72
2022/08/24 06:22:06;;;;;;;8.97;2.90;;;27.20;49.80;;;;;;10479724;28;20254;-72
2022/08/24 06:27:24;;;;;;;5.93;2.73;;;27.90;48.80;;;;;;10483148;28;20222;-71
2022/08/24 06:32:25;;;;;;;6.20;2.50;;;27.80;48.40;;;;;;10471411;28;20272;-71
2022/08/24 06:37:26;;;;;;;6.47;2.43;;;27.30;49.80;;;;;;10477068;28;20245;-71
2022/08/24 06:42:30;;;;;;;7.30;2.50;;;27.30;51.10;;;;;;10483933;28;20705;-71
2022/08/24 06:47:31;;;;;;;8.40;2.23;;;27.70;50.70;;;;;;10475793;28;20225;-71
2022/08/24 06:52:33;;;;;;;3.97;1.80;;;29.10;47.90;;;;;;10475528;28;20296;-71
2022/08/24 06:57:33;;;;;;;5.60;2.20;;;29.20;47.30;;;;;;10477583;28;20710;-72
2022/08/24 07:02:34;;;;;;;5.90;2.47;;;28.40;48.50;;;;;;10483318;28;20220;-72
2022/08/24 07:07:34;;;;;;;7.93;2.73;;;27.50;50.40;;;;;;10481071;28;20229;-71
2022/08/24 07:12:36;;;;;;;7.47;2.87;;;26.90;51.60;;;;;;10482048;28;20318;-72
2022/08/24 07:17:36;;;;;;;7.33;2.20;;;26.70;51.70;;;;;;10477735;28;20272;-71
2022/08/24 07:22:37;;;;;;;6.90;2.27;;;26.70;51.80;;;;;;10480038;28;20230;-72
2022/08/24 07:27:38;;;;;;;3.43;2.07;;;27.10;51.60;;;;;;10477880;28;20326;-72
2022/08/24 07:32:39;;;;;;;6.17;2.73;;;27.50;50.80;;;;;;10481674;28;20333;-72
2022/08/24 07:37:39;;;;;;;6.03;3.40;;;27.90;48.50;;;;;;10490467;28;20225;-72
2022/08/24 07:42:40;;;;;;;4.73;2.40;;;29.20;46.90;;;;;;10476171;28;20236;-72
2022/08/24 07:47:41;;;;;;;5.17;2.60;;;31.70;42.60;;;;;;10480287;28;20223;-71
2022/08/24 07:52:43;;;;;;;10.60;2.40;;;33.50;39.40;;;;;;10469582;28;20232;-72
2022/08/24 07:57:45;;;;;;;8.43;2.63;;;35.10;37.80;;;;;;10494887;28;20215;-72
2022/08/24 08:02:46;;;;;;;4.83;1.90;;;35.80;37.00;;;;;;10473359;28;20312;-71
2022/08/24 08:07:48;;;;;;;3.83;1.83;;;35.40;36.60;;;;;;10477068;28;20230;-72
2022/08/24 08:12:48;;;;;;;4.67;2.10;;;36.70;35.90;;;;;;10479022;28;20746;-71
2022/08/24 08:17:49;;;;;;;3.57;1.80;;;37.40;35.20;;;;;;10467983;28;20223;-72
2022/08/24 08:28:09;;;;;;;2.60;1.60;;;38.40;32.40;;;;;;10473421;28;20223;-72
2022/08/24 08:33:11;;;;;;;5.30;1.70;;;39.40;32.00;;;;;;10480362;28;20418;-72
2022/08/24 08:38:11;;;;;;;3.63;1.50;;;40.20;30.90;;;;;;10474515;28;20242;-72
2022/08/24 08:43:56;;;;;;;3.97;1.60;;;38.60;32.00;;;;;;10478600;28;20644;-72
2022/08/24 08:49:27;;;;;;;2.90;1.60;;;37.20;34.10;;;;;;10469149;28;20243;-72
2022/08/24 08:54:47;;;;;;;8.70;2.10;;;36.90;34.00;;;;;;10460627;28;20220;-72
2022/08/24 08:59:56;;;;;;;5.13;1.70;;;36.70;35.00;;;;;;10495745;28;20692;-72
2022/08/24 09:05:18;;;;;;;3.37;1.43;;;37.60;33.50;;;;;;10475687;28;20220;-71
2022/08/24 09:10:49;;;;;;;4.07;1.90;;;38.50;32.00;;;;;;10478906;28;20218;-72
2022/08/24 09:16:14;;;;;;;4.00;1.70;;;38.30;31.90;;;;;;10469092;28;20227;-71
2022/08/24 09:21:33;;;;;;;2.10;1.80;;;37.80;32.40;;;;;;10470792;28;20227;-72
2022/08/24 09:26:55;;;;;;;3.57;1.60;;;37.40;32.00;;;;;;10465037;28;20318;-72
2022/08/24 09:32:17;;;;;;;6.20;1.77;;;38.20;32.00;;;;;;10477745;28;20227;-72
2022/08/24 09:37:56;;;;;;;1.90;1.57;;;39.20;31.00;;;;;;10487041;28;20607;-72
2022/08/24 09:43:12;;;;;;;4.40;1.67;;;41.10;30.10;;;;;;10466124;28;20228;-71
2022/08/24 09:48:23;;;;;;;4.57;1.70;;;40.00;31.00;;;;;;10468802;28;20228;-71
2022/08/24 09:53:58;;;;;;;3.50;2.50;;;40.70;30.30;;;;;;10474792;28;20227;-71
2022/08/24 09:59:14;;;;;;;4.90;1.87;;;40.40;30.30;;;;;;10470421;28;20212;-72
2022/08/24 10:04:30;;;;;;;3.57;1.50;;;39.80;31.00;;;;;;10476491;28;20229;-72
2022/08/24 10:10:08;;;;;;;1.83;1.60;;;40.40;30.00;;;;;;10461066;28;20227;-71
2022/08/24 10:15:13;;;;;;;4.67;2.17;;;42.30;28.40;;;;;;10486715;28;20650;-71
2022/08/24 10:20:34;;;;;;;6.40;2.33;;;42.40;28.60;;;;;;10469410;28;20189;-72
2022/08/24 10:25:55;;;;;;;8.23;1.87;;;42.20;29.60;;;;;;10463375;28;20223;-72
2022/08/24 10:31:13;;;;;;;9.70;2.00;;;41.10;29.20;;;;;;10473006;28;20234;-71
2022/08/24 10:36:19;;;;;;;2.60;1.40;;;40.50;29.80;;;;;;10476652;28;20243;-72
2022/08/24 10:41:37;;;;;;;4.73;1.80;;;40.20;28.90;;;;;;10469096;28;20259;-71
2022/08/24 10:46:59;;;;;;;6.97;2.10;;;41.30;29.00;;;;;;10469781;28;20219;-71
2022/08/24 10:52:35;;;;;;;4.33;1.93;;;41.50;28.00;;;;;;10475144;28;20219;-73
2022/08/24 10:57:43;;;;;;;5.53;1.90;;;41.80;27.80;;;;;;10468634;28;20574;-71
2022/08/24 11:02:45;;;;;;;3.20;1.80;;;42.30;27.60;;;;;;10476295;28;20250;-72
2022/08/24 11:08:06;;;;;;;4.20;1.80;;;41.50;28.00;;;;;;10481551;28;20223;-71
2022/08/24 11:13:25;;;;;;;13.13;2.40;;;38.10;30.40;;;;;;10483714;28;20296;-72
2022/08/24 11:18:46;;;;;;;3.50;2.13;;;36.40;33.40;;;;;;10467137;28;20264;-71
2022/08/24 11:23:47;;;;;;;5.13;2.20;;;35.50;33.50;;;;;;10478684;28;20219;-72
2022/08/24 11:28:59;;;;;;;5.43;2.30;;;34.60;34.80;;;;;;10468493;28;20231;-72
2022/08/24 11:34:08;;;;;;;4.90;1.97;;;34.30;35.00;;;;;;10478542;28;20234;-71
2022/08/24 11:39:26;;;;;;;7.20;2.00;;;34.00;34.70;;;;;;10476817;28;20593;-72
2022/08/24 11:44:36;;;;;;;7.07;2.00;;;33.70;36.70;;;;;;10480848;28;20231;-71
2022/08/24 11:50:07;;;;;;;2.03;1.90;;;33.60;37.00;;;;;;10480891;28;20223;-71
2022/08/24 11:55:28;;;;;;;5.47;2.50;;;33.70;37.70;;;;;;10477990;28;20231;-72
2022/08/24 12:01:01;;;;;;;2.90;2.20;;;33.50;37.40;;;;;;10466595;28;20212;-71
2022/08/24 12:06:13;;;;;;;2.87;2.20;;;33.50;38.00;;;;;;10475131;28;20226;-71
2022/08/24 12:11:35;;;;;;;6.97;2.43;;;33.00;38.00;;;;;;10473386;28;20691;-72
2022/08/24 12:17:03;;;;;;;4.13;2.20;;;32.70;39.30;;;;;;10463659;28;20662;-69
2022/08/24 12:22:07;;;;;;;3.90;2.20;;;32.50;39.30;;;;;;10473863;28;20323;-71
2022/08/24 12:27:19;;;;;;;3.30;2.03;;;32.70;39.60;;;;;;10479992;28;20227;-70
2022/08/24 12:32:30;;;;;;;3.77;2.70;;;32.70;39.30;;;;;;10478978;28;20223;-71
2022/08/24 12:37:48;;;;;;;5.67;2.30;;;32.70;38.40;;;;;;10465286;28;20713;-71
2022/08/24 12:42:54;;;;;;;3.37;2.53;;;32.60;38.40;;;;;;10471483;28;20279;-73
2022/08/24 12:48:23;;;;;;;18.07;2.97;;;32.80;38.60;;;;;;10471078;28;20223;-71
2022/08/24 12:53:59;;;;;;;17.93;3.10;;;32.30;38.80;;;;;;10470981;28;20310;-72
2022/08/24 12:59:24;;;;;;;10.93;2.37;;;32.40;38.70;;;;;;10467167;28;20321;-71
2022/08/24 13:04:58;;;;;;;4.63;2.40;;;32.10;39.10;;;;;;10479356;28;20216;-71
2022/08/24 13:09:58;;;;;;;2.97;2.10;;;32.40;38.80;;;;;;10486321;28;20218;-71
2022/08/24 13:15:29;;;;;;;4.97;2.57;;;32.60;37.80;;;;;;10474503;28;20231;-70
2022/08/24 13:20:42;;;;;;;6.93;2.40;;;32.30;38.80;;;;;;10463558;28;20299;-70
2022/08/24 13:25:45;;;;;;;4.20;2.10;;;32.30;38.90;;;;;;10475338;28;20219;-71
2022/08/24 13:30:52;;;;;;;7.03;2.47;;;32.20;38.70;;;;;;10473411;28;20260;-71
2022/08/24 13:35:57;;;;;;;3.80;2.50;;;32.30;38.80;;;;;;10469487;28;20219;-71
2022/08/24 13:41:35;;;;;;;3.67;2.13;;;32.30;39.20;;;;;;10473333;28;20231;-72
2022/08/24 13:46:53;;;;;;;6.03;2.40;;;32.40;38.90;;;;;;10454875;28;20212;-71
2022/08/24 13:52:11;;;;;;;5.40;2.20;;;32.60;38.70;;;;;;10468567;28;20314;-70
2022/08/24 13:57:35;;;;;;;5.93;2.50;;;32.60;38.40;;;;;;10470930;28;20640;-72
2022/08/24 14:03:14;;;;;;;3.77;2.10;;;32.80;38.70;;;;;;10463064;28;20230;-72
2022/08/24 14:08:37;;;;;;;5.57;2.40;;;32.80;38.00;;;;;;10470667;28;20695;-72
2022/08/24 14:14:04;;;;;;;6.90;2.70;;;32.90;38.50;;;;;;10467673;28;20227;-70
2022/08/24 14:19:49;;;;;;;3.10;2.00;;;33.00;37.80;;;;;;10479832;28;20226;-71
2022/08/24 14:25:16;;;;;;;2.97;2.30;;;33.40;37.80;;;;;;10472186;28;20231;-71
2022/08/24 14:30:17;;;;;;;4.67;1.80;;;33.40;37.20;;;;;;10477995;28;20237;-72
2022/08/24 14:35:26;;;;;;;3.47;2.10;;;33.40;37.10;;;;;;10491783;28;20577;-71
2022/08/24 14:40:52;;;;;;;4.90;2.07;;;33.20;37.30;;;;;;10467340;28;20658;-71
2022/08/24 14:46:04;;;;;;;4.57;2.30;;;33.20;37.30;;;;;;10479513;28;20800;-71
2022/08/24 14:51:33;;;;;;;4.53;2.23;;;33.30;37.30;;;;;;10481581;28;20223;-72
2022/08/24 14:57:06;;;;;;;3.53;2.30;;;33.40;37.40;;;;;;10469776;28;20607;-71
2022/08/24 15:02:28;;;;;;;3.37;2.50;;;33.00;37.90;;;;;;10483904;28;20746;-71
2022/08/24 15:07:35;;;;;;;4.77;2.30;;;32.80;38.00;;;;;;10468108;28;20220;-72
2022/08/24 15:12:36;;;;;;;3.17;2.60;;;32.80;38.50;;;;;;10482338;28;20302;-71
2022/08/24 15:17:51;;;;;;;3.53;2.20;;;32.80;38.30;;;;;;10468791;28;20303;-71
2022/08/24 15:23:02;;;;;;;4.50;2.40;;;33.00;38.00;;;;;;10478780;28;20627;-71
2022/08/24 15:28:10;;;;;;;3.97;2.37;;;32.90;37.30;;;;;;10477920;28;20280;-71
2022/08/24 15:33:14;;;;;;;4.03;2.23;;;32.80;37.60;;;;;;10484722;28;20204;-71
2022/08/24 15:38:16;;;;;;;5.40;2.20;;;32.80;37.60;;;;;;10479664;28;20271;-70
2022/08/24 15:43:17;;;;;;;4.47;1.93;;;32.20;37.90;;;;;;10472536;28;20600;-72
2022/08/24 15:48:24;;;;;;;5.37;2.50;;;32.00;38.40;;;;;;10481490;28;20222;-70
2022/08/24 15:53:40;;;;;;;2.87;1.83;;;31.90;38.20;;;;;;10473217;28;20220;-72
2022/08/24 15:58:40;;;;;;;4.17;2.00;;;31.90;38.60;;;;;;10467517;28;20264;-71
2022/08/24 16:03:45;;;;;;;2.63;2.13;;;32.00;38.90;;;;;;10475319;28;20703;-70
2022/08/24 16:09:11;;;;;;;5.57;2.10;;;31.90;38.20;;;;;;10483902;28;20246;-71
2022/08/24 16:14:26;;;;;;;4.97;2.30;;;31.60;38.80;;;;;;10480310;28;20238;-71
2022/08/24 16:19:32;;;;;;;4.43;1.90;;;31.60;39.10;;;;;;10473185;28;20208;-72
2022/08/24 16:24:36;;;;;;;3.60;1.90;;;31.40;39.40;;;;;;10472643;28;20216;-70
2022/08/24 16:29:37;;;;;;;5.40;2.13;;;31.30;39.80;;;;;;10479039;28;20207;-72
2022/08/24 16:34:40;;;;;;;4.77;1.90;;;31.30;39.90;;;;;;10478609;28;20697;-71
2022/08/24 16:39:41;;;;;;;5.23;2.20;;;31.20;39.70;;;;;;10473182;28;20628;-72
2022/08/24 16:44:42;;;;;;;4.37;2.00;;;31.10;40.20;;;;;;10476658;28;20230;-70
2022/08/24 16:49:43;;;;;;;6.53;2.33;;;31.10;40.20;;;;;;10473802;28;20223;-74
2022/08/24 16:54:45;;;;;;;2.90;2.07;;;30.90;40.50;;;;;;10476061;28;20749;-72
2022/08/24 16:59:48;;;;;;;4.83;2.33;;;30.80;40.50;;;;;;10474130;28;20265;-73
2022/08/24 17:04:49;;;;;;;3.07;1.80;;;30.70;40.70;;;;;;10476503;28;20224;-74
2022/08/24 17:09:50;;;;;;;5.50;2.03;;;30.60;41.10;;;;;;10466690;28;20702;-73
2022/08/24 17:14:52;;;;;;;1.70;1.60;;;30.50;41.60;;;;;;10464987;28;20224;-73
2022/08/24 17:19:53;;;;;;;5.07;1.90;;;30.40;41.60;;;;;;10453748;28;20266;-72
2022/08/24 17:24:54;;;;;;;4.17;1.97;;;30.30;41.70;;;;;;10455700;28;20207;-72
2022/08/24 17:29:56;;;;;;;2.30;2.07;;;30.20;41.90;;;;;;10453073;28;20641;-72
2022/08/24 17:34:57;;;;;;;5.13;1.80;;;30.20;41.70;;;;;;10454983;28;20698;-73
2022/08/24 17:39:58;;;;;;;2.70;2.10;;;30.10;41.90;;;;;;10456971;28;20207;-74
2022/08/24 17:44:59;;;;;;;3.30;1.80;;;30.00;42.00;;;;;;10455729;28;20224;-74
2022/08/24 17:50:00;;;;;;;4.30;2.00;;;29.90;42.20;;;;;;10455413;28;20216;-73
2022/08/24 17:55:03;;;;;;;5.83;2.40;;;29.80;42.40;;;;;;10452492;28;20220;-74
2022/08/24 18:00:06;;;;;;;4.07;1.77;;;29.70;42.50;;;;;;10458595;28;20222;-73
2022/08/24 18:05:09;;;;;;;3.97;1.90;;;29.50;42.60;;;;;;10476140;28;20669;-73
2022/08/24 18:10:12;;;;;;;4.83;2.37;;;29.40;42.70;;;;;;10460001;28;20218;-73
2022/08/24 18:15:13;;;;;;;4.50;2.23;;;29.30;42.90;;;;;;10469571;28;20736;-72
2022/08/24 18:20:24;;;;;;;3.20;1.90;;;29.20;43.20;;;;;;10474346;28;20222;-71
2022/08/24 18:25:25;;;;;;;5.37;2.33;;;29.10;43.30;;;;;;10468510;28;20216;-71
2022/08/24 18:30:29;;;;;;;4.27;1.77;;;29.00;43.80;;;;;;10467798;28;20216;-74
2022/08/24 18:35:30;;;;;;;3.73;2.20;;;28.80;44.20;;;;;;10465792;28;20690;-73
2022/08/24 18:40:30;;;;;;;3.83;2.30;;;28.60;44.50;;;;;;10461833;28;20224;-71
2022/08/24 18:45:32;;;;;;;3.30;1.80;;;28.40;45.10;;;;;;10472230;28;20230;-71
2022/08/24 18:50:34;;;;;;;3.20;2.13;;;28.30;45.40;;;;;;10470764;28;20265;-70
2022/08/24 18:55:37;;;;;;;3.43;1.77;;;28.10;45.70;;;;;;10473947;28;20243;-70
2022/08/24 19:00:39;;;;;;;3.73;1.97;;;27.80;46.40;;;;;;10470113;28;20222;-71
2022/08/24 19:05:40;;;;;;;2.63;2.07;;;27.60;46.50;;;;;;10468937;28;20223;-72
2022/08/24 19:10:40;;;;;;;4.83;2.50;;;27.50;46.90;;;;;;10469922;28;20229;-72
2022/08/24 19:15:45;;;;;;;4.57;2.23;;;27.30;47.00;;;;;;10468650;28;20256;-72
2022/08/24 19:20:49;;;;;;;3.87;2.17;;;27.20;47.30;;;;;;10475070;28;20586;-67
2022/08/24 19:25:53;;;;;;;3.63;2.20;;;27.20;47.10;;;;;;10468715;28;20697;-68
2022/08/24 19:30:56;;;;;;;5.90;2.37;;;27.20;47.30;;;;;;10473843;28;20233;-68
2022/08/24 19:35:58;;;;;;;2.23;1.87;;;27.00;47.40;;;;;;10473197;28;20226;-68
2022/08/24 19:40:59;;;;;;;3.80;2.07;;;26.90;47.50;;;;;;10479749;28;20226;-68
2022/08/24 19:46:09;;;;;;;3.77;2.20;;;26.80;47.70;;;;;;10476704;28;20215;-68
2022/08/24 19:51:12;;;;;;;4.23;2.47;;;26.70;47.90;;;;;;10474704;28;20636;-67
2022/08/24 19:56:19;;;;;;;3.30;2.87;;;26.70;47.60;;;;;;10474225;28;20251;-68
2022/08/24 20:01:26;;;;;;;5.17;2.67;;;26.50;49.60;;;;;;10472138;28;20257;-67
2022/08/24 20:06:29;;;;;;;5.20;3.60;;;26.30;49.00;;;;;;10469767;28;20551;-67
2022/08/24 20:11:30;;;;;;;6.73;3.80;;;26.30;49.10;;;;;;10482074;28;20227;-68
2022/08/24 20:16:42;;;;;;;4.53;3.00;;;26.30;49.50;;;;;;10467216;28;20211;-68
2022/08/24 20:21:43;;;;;;;4.93;3.30;;;26.30;49.70;;;;;;10473880;28;20261;-70
2022/08/24 20:26:45;;;;;;;6.07;3.50;;;26.20;50.80;;;;;;10466092;28;20240;-70
2022/08/24 20:31:47;;;;;;;4.90;3.60;;;26.00;52.00;;;;;;10459295;28;20924;-68
2022/08/24 20:36:49;;;;;;;4.73;3.73;;;25.80;53.50;;;;;;10469691;28;20705;-75
2022/08/24 20:41:51;;;;;;;4.43;3.67;;;25.60;53.50;;;;;;10466747;28;20590;-76
2022/08/24 20:46:53;;;;;;;4.37;3.90;;;25.40;53.40;;;;;;10469087;28;20322;-74
2022/08/24 20:51:54;;;;;;;5.40;4.20;;;25.20;53.60;;;;;;10466758;28;20455;-74
2022/08/24 20:56:55;;;;;;;6.23;3.30;;;25.30;53.50;;;;;;10472904;28;20656;-73
2022/08/24 21:01:55;;;;;;;5.40;3.00;;;25.20;53.20;;;;;;10473852;28;20685;-73
2022/08/24 21:06:56;;;;;;;5.57;3.50;;;25.30;51.90;;;;;;10475425;28;20222;-73
2022/08/24 21:12:03;;;;;;;5.13;3.40;;;25.40;52.00;;;;;;10471282;28;20223;-72
2022/08/24 21:17:04;;;;;;;5.07;2.60;;;25.20;52.20;;;;;;10470665;28;20242;-73
2022/08/24 21:22:05;;;;;;;5.77;3.20;;;25.10;52.00;;;;;;10466919;28;20385;-72
2022/08/24 21:27:06;;;;;;;5.03;2.90;;;25.00;52.80;;;;;;10472589;28;20340;-73
2022/08/24 21:37:26;;;;;;;4.90;2.60;;;24.90;53.60;;;;;;10470168;28;20203;-74
2022/08/24 21:42:29;;;;;;;7.30;2.50;;;24.80;53.80;;;;;;10466667;28;20303;-71
2022/08/24 21:47:30;;;;;;;6.90;3.40;;;24.70;53.90;;;;;;10462261;28;20223;-72
2022/08/24 21:52:31;;;;;;;9.50;3.70;;;24.70;53.90;;;;;;10476817;28;20237;-72
2022/08/24 21:57:31;;;;;;;8.23;3.57;;;24.60;54.10;;;;;;10486069;28;20251;-74
2022/08/24 22:02:32;;;;;;;4.67;2.63;;;24.50;54.20;;;;;;10472322;28;20706;-74
2022/08/24 22:07:33;;;;;;;5.73;2.50;;;24.50;54.00;;;;;;10471304;28;20269;-74
2022/08/24 22:12:35;;;;;;;4.17;2.20;;;24.50;53.50;;;;;;10478839;28;20725;-75
2022/08/24 22:17:36;;;;;;;3.30;2.13;;;24.50;52.80;;;;;;10472243;28;20267;-75
2022/08/24 22:22:41;;;;;;;4.07;2.10;;;24.60;52.30;;;;;;10476874;28;20312;-74
2022/08/24 22:27:44;;;;;;;8.00;1.90;;;24.60;52.10;;;;;;10473839;28;20220;-75
2022/08/24 22:32:45;;;;;;;2.73;1.80;;;24.70;51.90;;;;;;10472795;28;20235;-73
2022/08/24 22:37:46;;;;;;;4.20;2.27;;;24.80;51.60;;;;;;10461851;28;20277;-73
2022/08/24 22:42:47;;;;;;;4.77;2.00;;;24.80;51.60;;;;;;10467073;28;20519;-74
2022/08/24 22:47:47;;;;;;;2.37;2.00;;;24.80;51.60;;;;;;10480129;28;20219;-73
2022/08/24 22:52:48;;;;;;;3.23;2.70;;;24.80;51.80;;;;;;10470415;28;20234;-73
2022/08/24 22:57:49;;;;;;;3.50;2.47;;;24.70;52.00;;;;;;10480489;28;20225;-75
2022/08/24 23:02:49;;;;;;;4.70;3.00;;;24.60;52.50;;;;;;10479704;28;20773;-74
2022/08/24 23:07:50;;;;;;;2.47;2.00;;;24.60;52.90;;;;;;10476100;28;20318;-74
2022/08/24 23:12:51;;;;;;;4.57;2.40;;;24.60;53.30;;;;;;10482499;28;20231;-74
2022/08/24 23:17:54;;;;;;;3.27;2.20;;;24.50;53.70;;;;;;10475897;28;20705;-74
2022/08/24 23:22:55;;;;;;;3.57;2.10;;;24.40;54.10;;;;;;10471809;28;20220;-73
2022/08/24 23:27:56;;;;;;;4.93;2.40;;;24.30;54.30;;;;;;10491605;28;20223;-74
2022/08/24 23:32:56;;;;;;;3.67;2.07;;;24.30;54.60;;;;;;10478582;28;20223;-73
2022/08/24 23:37:57;;;;;;;4.60;2.30;;;24.20;55.00;;;;;;10481787;28;20215;-73
2022/08/24 23:42:58;;;;;;;3.53;2.23;;;24.10;55.40;;;;;;10473574;28;20228;-74
2022/08/24 23:47:59;;;;;;;3.47;2.03;;;24.00;55.80;;;;;;10475339;28;20257;-74
2022/08/24 23:52:59;;;;;;;3.73;2.43;;;23.90;56.20;;;;;;10475195;28;20251;-75
2022/08/24 23:58:00;;;;;;;7.27;2.37;;;23.80;56.50;;;;;;10478346;28;20266;-75
